18°C Temp
15°C Dewpoint
83% Humidity
Temperature
3 KM/H
2 MPH
2 KTS
150°
South South
East

Wind Speed
Clear
Conditions
Pressure 1017.92 (hPa) - 30.06 (in)
Visibility 6.2 (mi) - 10.0 (km)

Current Conditions
LIRQ
Location 70(km)
Metar :LIRQ 032020Z 15002KT CAVOK 18/15 Q1018
Mon 3rd October 22:20 pm

Airport
  Metar Aviation API Data Provided by https://www.checkwx.com/ PHP scripts by weather34.com ©2022